Time;durP1;ratioP1;P1;durP2;ratioP2;P2;SDS_P1;SDS_P2;PMS_P1;PMS_P2;Temp;Humidity;BMP_temperature;BMP_pressure;BME280_temperature;BME280_humidity;BME280_pressure;Samples;Min_cycle;Max_cycle;Signal;HPM_P1;HPM_P2
2022/02/09 00:04:34;;;;;;;3.20;2.77;;;11.90;99.90;;;;;;4921755;29;20467;-84
2022/02/09 00:07:06;;;;;;;3.17;2.87;;;11.70;99.90;;;;;;4917721;29;20458;-84
2022/02/09 00:09:33;;;;;;;3.80;3.50;;;11.90;99.90;;;;;;4920007;29;20495;-84
2022/02/09 00:12:08;;;;;;;4.90;3.83;;;12.00;99.90;;;;;;4918769;29;20566;-86
2022/02/09 00:17:29;;;;;;;4.63;4.20;;;12.00;99.90;;;;;;4918279;29;20469;-85
2022/02/09 00:23:11;;;;;;;4.50;3.93;;;12.00;99.90;;;;;;4918997;29;20473;-83
2022/02/09 00:29:24;;;;;;;4.13;3.83;;;11.50;99.90;;;;;;4865090;29;20863;-84
2022/02/09 00:32:59;;;;;;;3.70;3.40;;;11.30;99.90;;;;;;4919802;29;20461;-87
2022/02/09 01:11:38;;;;;;;5.60;5.10;;;11.70;99.90;;;;;;4922563;29;20527;-84
2022/02/09 01:38:56;;;;;;;4.60;3.80;;;11.80;99.90;;;;;;4914170;29;20525;-84
2022/02/09 01:50:58;;;;;;;5.23;4.73;;;11.80;99.90;;;;;;4901989;29;20475;-83
2022/02/09 01:55:49;;;;;;;4.80;4.30;;;11.60;99.90;;;;;;4914950;29;20489;-84
2022/02/09 01:58:17;;;;;;;4.60;3.93;;;11.70;99.90;;;;;;4932040;29;20459;-84
2022/02/09 02:00:44;;;;;;;5.40;4.90;;;11.70;99.90;;;;;;4926595;29;20490;-83
2022/02/09 02:03:11;;;;;;;5.30;4.70;;;11.80;99.90;;;;;;4916691;29;20458;-85
2022/02/09 02:05:41;;;;;;;5.00;4.60;;;11.80;99.90;;;;;;4931889;29;20487;-83
2022/02/09 02:08:10;;;;;;;5.47;4.57;;;11.80;99.90;;;;;;4918207;29;20467;-84
2022/02/09 02:19:44;;;;;;;4.83;4.33;;;11.80;99.90;;;;;;4923619;29;20478;-82
2022/02/09 02:22:38;;;;;;;5.43;4.67;;;11.80;99.90;;;;;;4936128;29;20494;-83
2022/02/09 02:26:00;;;;;;;4.77;4.30;;;11.60;99.90;;;;;;4918368;29;20474;-84
2022/02/09 02:58:49;;;;;;;4.93;4.53;;;11.60;99.90;;;;;;4912607;29;20465;-84
2022/02/09 03:14:31;;;;;;;5.47;3.60;;;11.80;99.90;;;;;;4872592;29;20712;-83
2022/02/09 03:17:50;;;;;;;3.87;3.57;;;11.70;99.90;;;;;;4864168;29;21048;-83
2022/02/09 03:20:44;;;;;;;5.33;4.30;;;11.60;99.90;;;;;;4840740;29;20466;-83
2022/02/09 03:24:06;;;;;;;4.20;3.80;;;11.60;99.90;;;;;;4867821;29;20571;-84
2022/02/09 03:48:22;;;;;;;3.20;2.90;;;11.40;99.90;;;;;;4923167;29;20981;-83
2022/02/09 03:54:36;;;;;;;3.90;3.50;;;11.50;99.90;;;;;;4922305;29;20470;-84
2022/02/09 03:57:21;;;;;;;4.57;3.40;;;11.60;99.90;;;;;;4925240;29;20459;-84
2022/02/09 04:00:10;;;;;;;4.20;3.30;;;11.60;99.90;;;;;;4911301;29;20493;-84
2022/02/09 04:03:00;;;;;;;3.40;3.10;;;11.40;99.90;;;;;;4935398;29;20490;-85
2022/02/09 04:05:42;;;;;;;3.27;2.77;;;11.20;99.90;;;;;;4922938;29;20466;-85
2022/02/09 04:08:32;;;;;;;2.60;2.40;;;11.20;99.90;;;;;;4929622;29;20468;-85
2022/02/09 04:11:20;;;;;;;4.20;3.10;;;11.20;99.90;;;;;;4919991;29;20499;-84
2022/02/09 04:17:40;;;;;;;3.73;3.43;;;11.10;99.90;;;;;;4908635;29;20455;-84
2022/02/09 04:44:21;;;;;;;3.57;3.27;;;11.40;99.90;;;;;;4921966;29;20462;-85
2022/02/09 04:50:53;;;;;;;2.83;2.60;;;11.10;99.90;;;;;;4924738;29;20486;-84
2022/02/09 04:57:14;;;;;;;4.10;2.90;;;11.70;99.90;;;;;;4906895;29;20458;-84
2022/02/09 05:26:50;;;;;;;3.40;3.10;;;11.00;99.90;;;;;;4927778;29;20466;-84
2022/02/09 05:29:26;;;;;;;3.40;3.10;;;11.00;99.90;;;;;;4917404;29;21045;-85
2022/02/09 05:32:01;;;;;;;4.00;3.20;;;11.20;99.90;;;;;;4920105;29;20473;-85
2022/02/09 05:35:02;;;;;;;4.63;3.50;;;11.40;99.90;;;;;;4916662;29;20491;-84
2022/02/09 05:37:31;;;;;;;4.33;3.93;;;11.30;99.90;;;;;;4925760;29;20490;-83
2022/02/09 05:39:58;;;;;;;3.77;3.33;;;11.20;99.90;;;;;;4925089;29;20946;-84
2022/02/09 05:42:27;;;;;;;5.70;3.70;;;11.50;99.90;;;;;;4928245;29;20765;-85
2022/02/09 05:44:55;;;;;;;4.80;3.67;;;11.80;99.70;;;;;;4930826;29;20550;-84
2022/02/09 05:50:26;;;;;;;3.93;3.63;;;11.90;99.20;;;;;;4910453;29;20591;-85
2022/02/09 05:53:08;;;;;;;4.60;4.20;;;11.60;99.40;;;;;;4915277;29;20447;-83
2022/02/09 05:58:11;;;;;;;3.70;3.40;;;11.40;99.90;;;;;;4913601;29;20454;-84
2022/02/09 06:00:41;;;;;;;5.17;4.33;;;11.60;99.90;;;;;;4917184;29;20569;-84
2022/02/09 06:03:08;;;;;;;4.60;4.20;;;11.70;99.80;;;;;;4908465;29;21982;-83
2022/02/09 06:05:35;;;;;;;4.00;3.70;;;11.60;99.80;;;;;;4934351;29;20494;-85
2022/02/09 06:08:02;;;;;;;3.83;3.50;;;11.50;99.90;;;;;;4933297;29;20910;-85
2022/02/09 06:10:33;;;;;;;4.73;3.63;;;11.50;99.90;;;;;;4914843;29;20514;-84
2022/02/09 06:21:13;;;;;;;4.07;3.40;;;11.40;99.70;;;;;;4904265;29;20495;-85
2022/02/09 06:23:42;;;;;;;3.70;3.40;;;11.60;99.70;;;;;;4903475;29;20474;-85
2022/02/09 06:26:11;;;;;;;3.93;3.47;;;11.50;99.60;;;;;;4907322;29;20493;-84
2022/02/09 06:28:40;;;;;;;3.47;3.00;;;11.60;99.30;;;;;;4920264;29;20462;-84
2022/02/09 06:31:07;;;;;;;4.03;3.63;;;11.50;99.60;;;;;;4933660;29;20467;-83
2022/02/09 06:33:34;;;;;;;3.70;3.40;;;11.70;99.50;;;;;;4921558;29;20503;-84
2022/02/09 06:36:07;;;;;;;4.37;3.97;;;11.60;99.50;;;;;;4916595;29;20486;-85
2022/02/09 06:38:39;;;;;;;3.90;3.60;;;11.50;99.80;;;;;;4913948;29;20491;-84
2022/02/09 06:41:09;;;;;;;4.10;3.70;;;11.60;99.90;;;;;;4916667;29;20481;-84
2022/02/09 06:43:39;;;;;;;4.00;3.70;;;11.60;99.70;;;;;;4932252;29;20546;-85
2022/02/09 06:46:12;;;;;;;4.57;4.17;;;11.60;99.70;;;;;;4943917;29;20478;-85
2022/02/09 06:48:42;;;;;;;5.20;3.83;;;11.60;99.70;;;;;;4926032;29;20561;-84
2022/02/09 06:51:13;;;;;;;4.10;3.70;;;11.50;99.90;;;;;;4924629;29;20543;-83
2022/02/09 06:53:51;;;;;;;6.07;3.67;;;11.50;99.90;;;;;;4928628;29;21239;-83
2022/02/09 06:56:38;;;;;;;4.10;3.67;;;11.60;99.90;;;;;;4914267;29;20477;-82
2022/02/09 06:59:14;;;;;;;5.20;3.20;;;11.70;99.90;;;;;;4921526;29;20545;-84
2022/02/09 07:01:43;;;;;;;4.37;3.30;;;11.80;99.90;;;;;;4916988;29;20450;-85
2022/02/09 07:04:12;;;;;;;6.20;3.70;;;11.60;99.90;;;;;;4913410;29;20462;-85
2022/02/09 07:06:40;;;;;;;6.13;3.63;;;11.60;99.90;;;;;;4912121;29;20474;-85
2022/02/09 07:09:09;;;;;;;4.70;4.30;;;11.50;99.90;;;;;;4911173;29;20484;-85
2022/02/09 07:11:36;;;;;;;5.13;3.63;;;11.40;99.90;;;;;;4913601;29;20529;-85
2022/02/09 07:14:04;;;;;;;3.93;3.53;;;11.40;99.90;;;;;;4913950;29;20649;-84
2022/02/09 07:16:31;;;;;;;4.40;3.93;;;11.40;99.90;;;;;;4914820;29;20486;-82
2022/02/09 07:18:59;;;;;;;4.90;3.57;;;11.70;99.90;;;;;;4904671;29;20516;-84
2022/02/09 07:21:32;;;;;;;4.70;4.07;;;11.70;99.90;;;;;;4905065;29;20486;-84
2022/02/09 07:24:02;;;;;;;4.50;3.90;;;11.70;99.90;;;;;;4910435;29;20531;-86
2022/02/09 07:26:48;;;;;;;4.57;4.17;;;11.50;99.90;;;;;;4922082;29;20467;-84
2022/02/09 07:29:18;;;;;;;5.77;3.60;;;11.30;99.90;;;;;;4934544;29;21075;-85
2022/02/09 07:31:46;;;;;;;4.60;3.67;;;11.20;99.90;;;;;;4918756;29;20455;-83
2022/02/09 07:34:15;;;;;;;4.87;3.67;;;11.10;99.90;;;;;;4916896;29;20526;-84
2022/02/09 07:36:46;;;;;;;4.03;3.63;;;11.60;99.90;;;;;;4915984;29;20490;-84
2022/02/09 07:39:14;;;;;;;4.57;3.37;;;11.50;99.90;;;;;;4933072;29;20474;-82
2022/02/09 07:41:47;;;;;;;4.00;2.70;;;11.30;99.90;;;;;;4916109;29;20467;-85
2022/02/09 07:44:29;;;;;;;5.83;3.80;;;11.40;99.90;;;;;;4918460;29;20463;-84
2022/02/09 07:49:38;;;;;;;5.27;3.40;;;11.60;99.90;;;;;;4922046;29;20481;-84
2022/02/09 07:52:11;;;;;;;5.10;3.37;;;11.50;99.90;;;;;;4925566;29;20467;-84
2022/02/09 07:54:38;;;;;;;3.90;3.50;;;11.30;99.90;;;;;;4943649;29;20533;-85
2022/02/09 07:57:09;;;;;;;4.20;3.73;;;11.50;99.90;;;;;;4930686;29;20463;-84
2022/02/09 07:59:39;;;;;;;3.37;3.07;;;11.50;99.90;;;;;;4926991;29;20483;-84
2022/02/09 08:02:09;;;;;;;4.80;3.43;;;11.40;99.90;;;;;;4930618;29;20495;-83
2022/02/09 08:04:45;;;;;;;4.10;3.30;;;11.30;99.90;;;;;;4929922;29;20490;-83
2022/02/09 08:07:16;;;;;;;3.70;3.30;;;11.50;99.90;;;;;;4927192;29;20712;-85
2022/02/09 08:09:48;;;;;;;4.63;3.30;;;11.40;99.90;;;;;;4921286;29;20547;-83
2022/02/09 08:22:12;;;;;;;3.70;2.70;;;11.20;99.90;;;;;;4923944;29;20483;-84
2022/02/09 08:31:33;;;;;;;4.87;3.17;;;11.20;99.90;;;;;;4981761;28;20469;-84
2022/02/09 08:33:57;;;;;;;4.07;3.27;;;11.40;99.90;;;;;;4978470;28;20481;-85
2022/02/09 08:36:23;;;;;;;5.40;3.10;;;11.50;99.90;;;;;;4988216;28;20491;-86
2022/02/09 08:38:52;;;;;;;5.63;3.57;;;11.30;99.90;;;;;;4960977;28;20510;-82
2022/02/09 08:41:18;;;;;;;4.47;3.57;;;11.20;99.90;;;;;;4965542;28;20537;-82
2022/02/09 08:43:45;;;;;;;2.90;2.40;;;11.10;99.90;;;;;;4970089;28;20471;-83
2022/02/09 08:46:16;;;;;;;3.40;2.90;;;11.20;99.90;;;;;;4959778;28;20477;-83
2022/02/09 08:48:42;;;;;;;3.83;3.40;;;11.20;99.90;;;;;;4964863;28;20457;-82
2022/02/09 08:51:09;;;;;;;2.77;2.50;;;11.20;99.90;;;;;;4965847;28;20575;-84
2022/02/09 08:53:36;;;;;;;4.67;2.97;;;11.20;99.90;;;;;;4960636;28;20468;-84
2022/02/09 08:56:09;;;;;;;4.00;3.10;;;11.10;99.90;;;;;;4962016;28;20494;-84
2022/02/09 08:58:36;;;;;;;3.53;2.60;;;11.10;99.90;;;;;;4963508;28;20453;-84
2022/02/09 09:01:21;;;;;;;5.57;3.17;;;11.20;99.90;;;;;;4990592;28;20488;-85
2022/02/09 09:03:52;;;;;;;3.03;2.60;;;11.50;99.90;;;;;;4965830;28;20459;-83
2022/02/09 09:06:23;;;;;;;4.10;2.57;;;11.40;99.90;;;;;;4971803;28;20981;-85
2022/02/09 09:17:26;;;;;;;3.57;3.13;;;11.30;99.90;;;;;;4963895;28;20483;-85
2022/02/09 09:58:02;;;;;;;6.00;4.03;;;11.10;99.90;;;;;;4958166;28;20535;-84
2022/02/09 10:02:04;;;;;;;7.13;4.00;;;11.00;99.90;;;;;;4969361;28;20445;-85
2022/02/09 10:34:07;;;;;;;4.73;4.03;;;11.30;99.90;;;;;;4946032;28;20484;-82
2022/02/09 10:36:57;;;;;;;5.10;4.27;;;11.20;99.90;;;;;;4932447;28;20541;-83
2022/02/09 10:39:42;;;;;;;4.20;3.33;;;11.10;99.90;;;;;;4941114;28;20537;-83
2022/02/09 10:42:15;;;;;;;4.40;3.70;;;11.20;99.90;;;;;;4957904;28;20469;-84
2022/02/09 10:44:47;;;;;;;7.40;4.70;;;11.80;99.90;;;;;;4959861;28;20526;-83
2022/02/09 10:47:26;;;;;;;6.80;4.67;;;11.70;99.90;;;;;;4973766;28;20468;-83
2022/02/09 10:50:14;;;;;;;5.57;4.43;;;11.50;99.90;;;;;;4975170;28;20556;-84
2022/02/09 10:52:47;;;;;;;4.40;3.27;;;11.50;99.90;;;;;;4961918;28;20931;-85
2022/02/09 10:55:31;;;;;;;6.60;3.43;;;11.40;99.90;;;;;;4978700;28;20532;-83
2022/02/09 10:57:59;;;;;;;5.57;3.60;;;11.50;99.90;;;;;;4960308;28;20519;-86
2022/02/09 11:00:27;;;;;;;4.50;3.23;;;11.70;99.90;;;;;;4956873;28;20560;-84
2022/02/09 11:02:55;;;;;;;6.80;3.03;;;11.70;99.90;;;;;;4945018;28;20452;-84
2022/02/09 11:05:23;;;;;;;4.93;3.03;;;11.50;99.90;;;;;;4949606;29;20461;-84
2022/02/09 11:07:52;;;;;;;3.70;2.97;;;11.30;99.90;;;;;;4947840;28;20469;-83
2022/02/09 11:10:18;;;;;;;5.20;2.67;;;11.30;99.90;;;;;;4942069;28;20504;-85
2022/02/09 11:12:45;;;;;;;3.50;2.60;;;11.40;99.90;;;;;;4963056;28;20468;-85
2022/02/09 11:15:18;;;;;;;4.17;2.90;;;11.40;99.90;;;;;;4977164;28;20488;-84
2022/02/09 11:17:54;;;;;;;4.43;4.00;;;11.70;99.90;;;;;;4963935;28;20507;-87
2022/02/09 11:21:03;;;;;;;9.03;2.47;;;11.70;99.90;;;;;;4978398;28;20585;-85
2022/02/09 11:27:35;;;;;;;3.83;2.30;;;11.50;99.90;;;;;;4966001;28;20491;-85
2022/02/09 11:30:24;;;;;;;3.47;2.60;;;11.50;99.90;;;;;;4960440;28;20485;-85
2022/02/09 11:33:24;;;;;;;5.03;2.47;;;11.60;99.90;;;;;;4954509;29;20476;-84
2022/02/09 11:39:31;;;;;;;3.73;2.20;;;11.60;99.90;;;;;;4965465;28;20472;-85
2022/02/09 11:42:26;;;;;;;3.90;2.40;;;11.70;99.90;;;;;;4964724;28;20480;-85
2022/02/09 11:45:22;;;;;;;5.77;2.60;;;11.70;99.90;;;;;;4962476;28;20464;-85
2022/02/09 11:51:32;;;;;;;5.10;2.60;;;11.70;99.90;;;;;;4984581;28;20467;-85
2022/02/09 12:15:29;;;;;;;5.83;2.70;;;11.80;99.90;;;;;;4943155;28;20496;-85
2022/02/09 12:18:24;;;;;;;4.70;3.00;;;11.70;99.90;;;;;;4944558;28;20488;-84
2022/02/09 12:21:15;;;;;;;5.00;3.17;;;11.70;99.90;;;;;;4947452;28;20528;-85
2022/02/09 12:24:02;;;;;;;7.40;3.20;;;11.70;99.90;;;;;;4950514;28;20518;-87
2022/02/09 12:26:32;;;;;;;5.20;3.37;;;11.70;99.90;;;;;;4967023;28;20465;-86
2022/02/09 12:29:10;;;;;;;6.73;3.37;;;11.70;99.90;;;;;;4947541;29;20595;-85
2022/02/09 12:31:47;;;;;;;9.67;4.40;;;11.80;99.90;;;;;;4943903;28;20471;-85
2022/02/09 12:34:44;;;;;;;4.70;3.37;;;11.80;99.90;;;;;;4943953;28;20622;-82
2022/02/09 12:37:45;;;;;;;6.43;4.60;;;11.90;99.90;;;;;;4947268;28;20485;-85
2022/02/09 12:40:38;;;;;;;6.03;3.43;;;12.00;99.90;;;;;;4953963;28;20480;-86
2022/02/09 12:43:13;;;;;;;5.73;3.40;;;12.00;99.90;;;;;;4942834;28;20472;-86
2022/02/09 12:46:03;;;;;;;6.13;3.00;;;12.00;99.90;;;;;;4941317;28;20461;-85
2022/02/09 12:48:30;;;;;;;8.23;4.07;;;11.90;99.90;;;;;;4943522;28;20465;-86
2022/02/09 12:51:23;;;;;;;6.27;3.80;;;12.00;99.90;;;;;;4954463;28;20535;-84
2022/02/09 12:54:08;;;;;;;11.83;3.73;;;12.00;99.90;;;;;;4945899;28;21020;-86
2022/02/09 12:56:43;;;;;;;5.23;3.20;;;12.00;99.90;;;;;;4946600;28;20548;-86
2022/02/09 12:59:15;;;;;;;7.60;3.40;;;11.90;99.90;;;;;;4941845;28;20464;-86
2022/02/09 13:04:46;;;;;;;7.93;3.90;;;12.00;99.90;;;;;;4940046;28;20465;-85
2022/02/09 13:07:21;;;;;;;6.93;3.30;;;12.00;99.90;;;;;;4937083;28;20493;-83
2022/02/09 13:09:59;;;;;;;7.23;3.90;;;12.00;99.90;;;;;;4943837;28;20588;-84
2022/02/09 13:12:42;;;;;;;3.27;2.97;;;11.90;99.90;;;;;;4944284;28;20508;-84
2022/02/09 13:15:21;;;;;;;7.57;4.17;;;12.00;99.90;;;;;;4941749;28;20468;-83
2022/02/09 13:52:35;;;;;;;5.40;3.20;;;12.20;99.90;;;;;;4942206;28;20461;-86
2022/02/09 14:02:56;;;;;;;7.43;3.67;;;12.30;99.90;;;;;;4934752;28;20477;-85
2022/02/09 14:57:31;;;;;;;10.63;3.63;;;12.50;99.40;;;;;;4819162;29;20748;-84
2022/02/09 15:00:30;;;;;;;6.20;3.73;;;12.50;99.20;;;;;;4856363;29;20490;-85
2022/02/09 15:07:43;;;;;;;4.17;3.30;;;12.50;99.00;;;;;;4850456;29;21017;-86
2022/02/09 15:22:20;;;;;;;8.40;3.50;;;12.40;98.90;;;;;;4912395;29;20465;-85
2022/02/09 15:25:33;;;;;;;5.47;3.50;;;12.40;98.90;;;;;;4909757;29;20554;-85
2022/02/09 16:37:46;;;;;;;4.90;2.80;;;12.10;99.10;;;;;;4946859;29;20529;-84
2022/02/09 16:51:19;;;;;;;4.40;2.70;;;12.10;99.40;;;;;;4901363;29;20500;-85
2022/02/09 16:54:31;;;;;;;4.90;3.27;;;12.20;99.10;;;;;;4971857;28;20471;-85
2022/02/09 17:08:24;;;;;;;6.23;2.57;;;12.10;99.20;;;;;;4970696;28;20475;-83
2022/02/09 17:20:32;;;;;;;9.73;4.27;;;12.20;98.40;;;;;;4965827;29;20540;-84
2022/02/09 17:23:00;;;;;;;5.40;3.00;;;12.20;98.60;;;;;;4967283;29;20453;-86
2022/02/09 17:25:37;;;;;;;6.33;3.70;;;12.10;98.80;;;;;;4970634;28;20438;-83
2022/02/09 17:28:13;;;;;;;6.77;3.60;;;12.00;99.20;;;;;;4968115;28;20461;-86
2022/02/09 17:58:05;;;;;;;;;;;;;;;;;;;;;
2022/02/09 18:01:40;;;;;;;6.30;5.20;;;11.40;99.90;;;;;;4850692;29;20491;-87
2022/02/09 18:04:48;;;;;;;8.77;5.13;;;11.40;99.90;;;;;;4849753;29;20473;-87
2022/02/09 18:30:21;;;;;;;8.13;4.90;;;11.30;99.90;;;;;;4732666;29;20642;-86
2022/02/09 18:44:18;;;;;;;6.87;4.53;;;11.00;99.90;;;;;;4823732;29;20866;-87
2022/02/09 20:06:09;;;;;;;8.10;7.07;;;11.10;99.90;;;;;;4928811;29;20627;-85
2022/02/09 20:09:27;;;;;;;14.73;7.57;;;11.00;99.90;;;;;;4927062;29;20479;-85
2022/02/09 20:12:57;;;;;;;16.30;8.40;;;10.90;99.90;;;;;;4935860;29;20550;-87
2022/02/09 20:16:05;;;;;;;;;;;;;;;;;;;;;
2022/02/09 20:19:56;;;;;;;;;;;;;;;;;;;;;
2022/02/09 20:27:03;;;;;;;;;;;;;;;;;;;;;
2022/02/09 20:40:19;;;;;;;13.10;7.60;;;10.70;99.90;;;;;;4976816;28;20501;-85
2022/02/09 20:47:07;;;;;;;;;;;;;;;;;;;;;
2022/02/09 20:51:15;;;;;;;;;;;;;;;;;;;;;
2022/02/09 20:54:54;;;;;;;;;;;;;;;;;;;;;
2022/02/09 21:11:45;;;;;;;11.37;6.83;;;10.60;99.90;;;;;;4865801;29;20909;-87
2022/02/09 21:15:44;;;;;;;;;;;;;;;;;;;;;
